Airfield :
LOGIN :

Register | Disclaimer

   EN    FR    IT 

 










Legend :    VFR   Marginal VFR   IFR   Intensive IFR   Very Intensive IFR
Visi :
Ceiling :
>= 8 km
>= 3000ft
5 to 8 km
1000 to 3000 ft
1500m to 5 km
500 to 1000 ft
800 to 1500m
200 to 500 ft
< 800m
< 200 ft
Symbols :   Thunderstorms  Fog  Heavy snow  Heavy precipitations  Wind > 20 kt
SIGMETs :     Misc.  Thunderstorms  Icing  Turbulence  Mountain Waves  Volcanic Ashes






- Airport Elevation : 245 ft
- IATA code : BIQ


LFBZ - Biarritz

CURRENT METAR :
  • 190230Z AUTO 23006KT 180V290 9999 OVC008/// ///CB 15/14 Q1019 TEMPO 27015G25KT 4000 SHRA

EXPIRED METARs :
  • 190200Z AUTO 24009KT 210V280 9999 BKN010/// OVC027/// ///CB 16/15 Q1020 TEMPO 27015G25KT 4000 SHRA FEW020CB BKN025TCU
  • 190130Z AUTO 21006KT 160V290 9999 FEW008/// BKN013/// BKN019/// ///CB 15/14 Q1019 TEMPO 27015G25KT 4000 SHRA FEW020CB BKN025TCU
  • 190100Z AUTO 24006KT 200V280 9999 BKN016/// BKN022/// OVC033/// ///CB 17/15 Q1019 TEMPO 27015G25KT 4000 SHRA
  • 190030Z AUTO 24008KT 200V280 9999 -RA SCT016/// BKN021/// BKN029/// ///CB 17/15 Q1019 TEMPO 27015G25KT 4000 SHRA
  • 190000Z AUTO 24008KT 190V280 9999 BKN016/// BKN022/// BKN027/// ///CB 16/14 Q1019 TEMPO 27015G25KT 4000 SHRA

TAF AMD TAF LFBZ
Valid from the 19 at 01:00 until the 20 at 00:00 UTC


190155Z 1901/1924 26010KT 9999 SCT020 BKN030
TEMPO 1901/1924 27015G25KT 4000 SHRA FEW020CB BKN025TCU
PROB40
TEMPO 1901/1907 BKN009
PROB30
TEMPO 1920/1924 2000 TSRA BKN010 BKN020CB



MET'MAP, your aeronautical weather chart ! - Copyright ORBIFLY December 2007 - Disclaimer

ORBIFLY MET'MAP TEAM :

Programming & Development : Alexandra Zaïnal
Concept & original design : Baudouin d'Aumeries
Assistance for programming : Marc-Olivier Méhu
Technical & hardware support : Manuel Goepfert

Contact : metmap@orbifly.com




SOURCES & CREDITS :

   NOAA